Time;durP1;ratioP1;P1;durP2;ratioP2;P2;SDS_P1;SDS_P2;PMS_P1;PMS_P2;Temp;Humidity;BMP_temperature;BMP_pressure;BME280_temperature;BME280_humidity;BME280_pressure;Samples;Min_cycle;Max_cycle;Signal;HPM_P1;HPM_P2
2021/10/05 00:02:07;;;;;;;13.50;11.57;;;;;;;7.56;67.38;101096.80;1755403;79;21421;-61
2021/10/05 00:04:34;;;;;;;14.90;11.27;;;;;;;7.53;67.32;101098.11;1762034;80;21504;-61
2021/10/05 00:07:00;;;;;;;15.05;11.03;;;;;;;7.47;67.25;101101.64;1744753;80;22045;-62
2021/10/05 00:09:27;;;;;;;12.75;10.43;;;;;;;7.43;67.26;101097.77;1752729;80;21546;-62
2021/10/05 00:11:54;;;;;;;18.77;11.97;;;;;;;7.39;67.31;101105.63;1740463;80;21527;-61
2021/10/05 00:14:21;;;;;;;16.02;11.33;;;;;;;7.33;67.28;101102.19;1751929;80;21456;-61
2021/10/05 00:16:47;;;;;;;13.30;10.58;;;;;;;7.28;67.28;101099.59;1741980;80;21530;-61
2021/10/05 00:19:15;;;;;;;14.38;10.30;;;;;;;7.26;67.81;101097.42;1750322;80;21780;-62
2021/10/05 00:21:42;;;;;;;14.30;10.72;;;;;;;7.37;68.10;101089.52;1744126;80;21406;-61
2021/10/05 00:24:11;;;;;;;18.05;11.60;;;;;;;7.40;67.95;101094.70;1755949;80;20977;-61
2021/10/05 00:26:39;;;;;;;13.65;10.98;;;;;;;7.36;67.99;101096.47;1742494;80;21541;-61
2021/10/05 00:29:05;;;;;;;14.45;10.95;;;;;;;7.31;68.03;101099.58;1754833;80;21616;-62
2021/10/05 00:31:34;;;;;;;13.60;11.95;;;;;;;7.29;67.98;101097.41;1742710;80;21814;-61
2021/10/05 00:34:00;;;;;;;17.25;12.43;;;;;;;7.24;67.94;101100.48;1739914;80;21547;-61
2021/10/05 00:36:27;;;;;;;17.55;11.78;;;;;;;7.19;67.91;101104.87;1753428;80;21483;-61
2021/10/05 00:38:54;;;;;;;14.38;10.48;;;;;;;7.13;67.87;101101.84;1742094;80;21494;-61
2021/10/05 00:41:20;;;;;;;12.65;9.78;;;;;;;7.15;68.26;101107.08;1748389;80;21599;-60
2021/10/05 00:43:47;;;;;;;13.88;10.18;;;;;;;7.20;68.57;101096.16;1740518;80;21721;-63
2021/10/05 00:46:15;;;;;;;15.18;11.43;;;;;;;7.22;68.61;101102.25;1740563;80;21470;-60
2021/10/05 00:48:41;;;;;;;14.85;11.75;;;;;;;7.19;68.61;101107.48;1751467;80;21513;-60
2021/10/05 00:51:08;;;;;;;16.15;11.88;;;;;;;7.15;68.67;101110.55;1745562;80;21522;-61
2021/10/05 00:53:35;;;;;;;15.60;12.82;;;;;;;7.13;68.62;101103.60;1759389;80;21491;-61
2021/10/05 00:56:03;;;;;;;15.83;11.83;;;;;;;7.10;68.63;101108.42;1761235;80;22021;-61
2021/10/05 00:58:30;;;;;;;15.98;11.08;;;;;;;7.07;68.55;101112.80;1744682;80;21577;-61
2021/10/05 01:00:57;;;;;;;12.88;11.28;;;;;;;7.08;68.89;101114.07;1740058;80;21439;-61
2021/10/05 01:03:23;;;;;;;18.80;11.68;;;;;;;7.17;69.09;101110.55;1747584;80;21089;-61
2021/10/05 01:05:50;;;;;;;19.20;12.45;;;;;;;7.18;69.07;101118.39;1750915;79;21515;-61
2021/10/05 01:08:21;;;;;;;20.08;12.43;;;;;;;7.16;69.05;101116.23;1759999;80;21991;-61
2021/10/05 01:10:48;;;;;;;16.75;13.43;;;;;;;7.14;69.05;101113.17;1745242;79;21602;-60
2021/10/05 01:13:15;;;;;;;15.58;13.00;;;;;;;7.11;68.95;101109.28;1747113;80;21530;-60
2021/10/05 01:15:41;;;;;;;15.75;13.03;;;;;;;7.08;68.93;101114.07;1744949;80;21542;-61
2021/10/05 01:18:08;;;;;;;21.15;13.43;;;;;;;7.04;68.90;101118.03;1748612;79;21618;-61
2021/10/05 01:20:57;;;;;;;19.23;14.38;;;;;;;7.04;69.17;101117.58;1744943;79;21779;-61
2021/10/05 01:23:24;;;;;;;17.02;13.00;;;;;;;7.11;69.41;101111.45;1745427;80;21593;-60
2021/10/05 01:25:51;;;;;;;19.00;13.65;;;;;;;7.11;69.40;101115.37;1747621;80;21515;-61
2021/10/05 01:28:20;;;;;;;20.15;13.85;;;;;;;7.05;69.45;101119.34;1758077;79;21571;-61
2021/10/05 01:30:47;;;;;;;20.23;13.88;;;;;;;7.01;69.50;101115.00;1743434;79;21609;-61
2021/10/05 01:33:13;;;;;;;18.20;14.28;;;;;;;6.98;69.42;101117.17;1741106;80;22042;-61
2021/10/05 01:35:40;;;;;;;19.12;13.15;;;;;;;6.93;69.59;101124.19;1754015;80;21493;-61
2021/10/05 01:38:07;;;;;;;15.53;13.13;;;;;;;6.93;69.87;101129.84;1745302;80;21435;-60
2021/10/05 01:40:33;;;;;;;20.95;14.68;;;;;;;7.01;69.95;101127.63;1750934;79;21530;-61
2021/10/05 01:43:00;;;;;;;19.10;14.87;;;;;;;6.99;70.00;101128.53;1740391;80;21534;-61
2021/10/05 01:45:27;;;;;;;19.92;14.98;;;;;;;6.94;69.99;101131.59;1746420;79;21779;-61
2021/10/05 01:47:53;;;;;;;17.77;14.85;;;;;;;6.88;70.07;101123.33;1745578;79;22080;-60
2021/10/05 01:50:20;;;;;;;17.92;14.25;;;;;;;6.86;70.08;101126.39;1748242;79;21002;-61
2021/10/05 01:52:48;;;;;;;22.50;14.25;;;;;;;6.82;70.05;101130.77;1744928;80;21414;-60
2021/10/05 01:55:16;;;;;;;19.37;14.15;;;;;;;6.83;70.43;101129.87;1750867;80;21517;-60
2021/10/05 01:57:43;;;;;;;16.60;13.72;;;;;;;6.94;70.48;101132.90;1744646;79;22100;-61
2021/10/05 02:00:11;;;;;;;16.32;13.60;;;;;;;6.95;70.35;101131.59;1746283;79;21492;-61
2021/10/05 02:02:37;;;;;;;19.65;15.55;;;;;;;6.92;70.39;101132.03;1756401;80;21454;-61
2021/10/05 02:05:06;;;;;;;19.80;14.53;;;;;;;6.90;70.19;101137.71;1755681;80;21577;-61
2021/10/05 02:07:34;;;;;;;20.10;14.80;;;;;;;6.84;70.36;101142.53;1742331;79;21501;-61
2021/10/05 02:10:02;;;;;;;20.37;13.95;;;;;;;6.80;70.33;101146.03;1748162;80;21436;-61
2021/10/05 02:12:29;;;;;;;17.75;13.45;;;;;;;6.81;70.64;101140.77;1746298;79;21538;-61
2021/10/05 02:14:56;;;;;;;18.17;13.48;;;;;;;6.92;70.73;101139.88;1745118;79;21612;-62
2021/10/05 02:17:22;;;;;;;18.02;14.38;;;;;;;6.91;70.70;101150.78;1745728;80;20990;-62
2021/10/05 02:19:49;;;;;;;17.32;13.25;;;;;;;6.87;70.74;101150.78;1747294;80;21602;-62
2021/10/05 02:22:16;;;;;;;19.32;14.13;;;;;;;6.83;70.79;101153.84;1751894;79;21609;-63
2021/10/05 02:24:43;;;;;;;21.12;15.45;;;;;;;6.80;70.67;101154.73;1752296;80;21407;-63
2021/10/05 02:27:16;;;;;;;18.63;13.23;;;;;;;6.77;70.75;101159.96;1744095;80;21527;-62
2021/10/05 02:29:43;;;;;;;16.75;13.18;;;;;;;6.78;71.03;101163.02;1750783;79;20974;-63
2021/10/05 02:32:11;;;;;;;16.02;12.98;;;;;;;6.90;71.04;101163.86;1761356;79;21589;-63
2021/10/05 02:34:38;;;;;;;16.85;14.30;;;;;;;6.89;70.95;101162.11;1747166;79;21786;-63
2021/10/05 02:37:05;;;;;;;20.77;14.58;;;;;;;6.83;71.00;101162.55;1754020;79;21498;-62
2021/10/05 02:39:33;;;;;;;18.05;13.88;;;;;;;6.77;71.05;101170.42;1748752;80;21549;-62
2021/10/05 02:41:59;;;;;;;20.40;14.45;;;;;;;6.75;71.07;101168.25;1745982;80;21042;-62
2021/10/05 02:44:26;;;;;;;16.48;13.70;;;;;;;6.73;71.03;101174.37;1742669;80;21515;-61
2021/10/05 02:46:52;;;;;;;16.57;13.68;;;;;;;6.73;71.22;101173.06;1742210;80;22036;-61
2021/10/05 02:49:19;;;;;;;19.17;13.85;;;;;;;6.83;71.27;101170.84;1749614;79;21491;-61
2021/10/05 02:51:46;;;;;;;20.65;13.38;;;;;;;6.83;71.13;101171.70;1712667;81;21502;-62
2021/10/05 02:54:12;;;;;;;17.80;14.33;;;;;;;6.79;71.14;101175.66;1761371;79;21510;-60
2021/10/05 02:56:39;;;;;;;17.95;14.60;;;;;;;6.75;71.11;101182.63;1752883;80;21479;-62
2021/10/05 02:59:06;;;;;;;28.17;15.18;;;;;;;6.71;71.15;101182.20;1753237;80;21811;-62
2021/10/05 03:01:33;;;;;;;19.27;13.83;;;;;;;6.68;71.15;101177.42;1745285;79;21018;-65
2021/10/05 03:03:59;;;;;;;18.35;12.93;;;;;;;6.68;71.45;101180.03;1752904;79;21550;-61
2021/10/05 03:06:26;;;;;;;18.87;14.10;;;;;;;6.76;71.58;101177.84;1757004;80;21570;-60
2021/10/05 03:08:54;;;;;;;19.23;15.13;;;;;;;6.78;71.43;101177.81;1752562;79;21466;-60
2021/10/05 03:11:21;;;;;;;21.05;14.20;;;;;;;6.73;71.46;101177.84;1746461;79;22067;-60
2021/10/05 03:13:48;;;;;;;17.23;14.13;;;;;;;6.68;71.43;101175.67;1757205;79;21092;-61
2021/10/05 03:16:15;;;;;;;21.40;15.23;;;;;;;6.62;71.40;101179.17;1748778;79;21412;-61
2021/10/05 03:18:42;;;;;;;19.05;13.53;;;;;;;6.57;71.39;101173.10;1743415;79;21591;-61
2021/10/05 03:21:09;;;;;;;16.32;13.30;;;;;;;6.56;71.72;101176.58;1750977;80;21432;-61
2021/10/05 03:23:39;;;;;;;18.05;13.15;;;;;;;6.66;71.98;101182.64;1689937;82;22121;-60
2021/10/05 03:26:06;;;;;;;19.57;13.75;;;;;;;6.69;71.90;101184.41;1756984;80;21439;-60
2021/10/05 03:28:34;;;;;;;20.40;13.68;;;;;;;6.65;71.85;101185.26;1756388;80;23080;-61
2021/10/05 03:31:00;;;;;;;19.62;13.98;;;;;;;6.60;71.83;101185.28;1744631;80;21673;-61
2021/10/05 03:33:27;;;;;;;18.90;14.55;;;;;;;6.57;71.90;101193.12;1743503;79;21522;-61
2021/10/05 03:35:54;;;;;;;24.98;14.00;;;;;;;6.53;71.76;101187.02;1753192;79;21855;-62
2021/10/05 03:38:22;;;;;;;17.02;12.93;;;;;;;6.54;71.93;101187.91;1753467;80;21581;-60
2021/10/05 03:40:50;;;;;;;15.50;12.65;;;;;;;6.59;72.25;101190.95;1745039;80;21596;-61
2021/10/05 03:43:17;;;;;;;16.82;13.40;;;;;;;6.60;72.29;101196.59;1753729;79;21579;-60
2021/10/05 03:45:43;;;;;;;18.30;14.18;;;;;;;6.57;72.25;101194.01;1745499;79;21415;-61
2021/10/05 03:48:12;;;;;;;22.20;13.50;;;;;;;6.52;72.26;101203.59;1747682;80;21790;-60
2021/10/05 03:50:39;;;;;;;20.20;14.58;;;;;;;6.50;72.21;101195.30;1743871;80;21501;-60
2021/10/05 03:53:05;;;;;;;20.00;13.32;;;;;;;6.46;72.14;101194.88;1746801;79;21550;-60
2021/10/05 03:55:34;;;;;;;15.43;12.73;;;;;;;6.47;72.32;101200.55;1748748;79;21572;-61
2021/10/05 03:58:01;;;;;;;18.23;13.77;;;;;;;6.57;72.56;101196.63;1755544;79;21605;-61
2021/10/05 04:00:27;;;;;;;16.65;12.95;;;;;;;6.59;72.40;101199.20;1740327;80;22056;-61
2021/10/05 04:02:55;;;;;;;19.15;13.70;;;;;;;6.56;72.45;101205.77;1743428;80;21625;-61
2021/10/05 04:05:22;;;;;;;20.23;14.43;;;;;;;6.53;72.38;101200.53;1743872;80;21570;-61
2021/10/05 04:07:48;;;;;;;18.17;14.78;;;;;;;6.49;72.31;101200.97;1753083;79;21570;-61
2021/10/05 04:10:15;;;;;;;17.32;13.98;;;;;;;6.43;72.21;101198.37;1744824;80;21472;-61
2021/10/05 04:12:42;;;;;;;18.65;13.35;;;;;;;6.45;72.49;101195.31;1760283;79;22046;-61
2021/10/05 04:15:09;;;;;;;16.73;13.83;;;;;;;6.55;72.56;101200.09;1744221;79;21499;-61
2021/10/05 04:17:35;;;;;;;19.80;14.47;;;;;;;6.56;72.47;101201.84;1696247;82;21567;-61
2021/10/05 04:20:03;;;;;;;22.75;15.18;;;;;;;6.52;72.46;101200.98;1745820;79;21044;-62
2021/10/05 04:22:30;;;;;;;18.45;14.73;;;;;;;6.46;72.41;101203.61;1752330;79;21483;-62
2021/10/05 04:24:57;;;;;;;18.82;15.23;;;;;;;6.42;72.44;101204.04;1749231;79;22100;-62
2021/10/05 04:27:23;;;;;;;20.85;13.65;;;;;;;6.38;72.32;101211.86;1743465;80;21589;-62
2021/10/05 04:29:50;;;;;;;19.48;13.65;;;;;;;6.38;72.63;101213.17;1755264;79;20994;-61
2021/10/05 04:32:17;;;;;;;16.32;13.40;;;;;;;6.47;72.80;101215.78;1756336;80;21500;-61
2021/10/05 04:34:43;;;;;;;18.48;14.30;;;;;;;6.50;72.84;101217.09;1745811;80;21439;-60
2021/10/05 04:37:10;;;;;;;25.12;15.32;;;;;;;6.49;72.87;101217.95;1740647;80;21738;-61
2021/10/05 04:39:37;;;;;;;23.60;14.33;;;;;;;6.47;72.84;101217.09;1694501;82;21654;-61
2021/10/05 04:42:03;;;;;;;18.27;14.23;;;;;;;6.48;72.83;101221.45;1743075;79;21487;-62
2021/10/05 04:44:30;;;;;;;15.70;13.03;;;;;;;6.46;72.72;101225.81;1748766;79;21523;-62
2021/10/05 04:46:57;;;;;;;17.10;12.60;;;;;;;6.50;72.83;101227.96;1744022;79;21656;-62
2021/10/05 04:49:24;;;;;;;17.40;14.00;;;;;;;6.58;72.96;101227.09;1747553;79;21817;-62
2021/10/05 04:51:50;;;;;;;17.92;13.35;;;;;;;6.62;72.87;101230.58;1746790;79;21499;-62
2021/10/05 04:54:17;;;;;;;21.25;15.83;;;;;;;6.59;72.86;101239.30;1760210;80;21453;-63
2021/10/05 04:56:44;;;;;;;20.70;14.77;;;;;;;6.56;73.00;101233.20;1749296;80;21526;-61
2021/10/05 04:59:11;;;;;;;19.32;15.30;;;;;;;6.53;73.02;101239.28;1755817;80;22208;-61
2021/10/05 05:01:37;;;;;;;21.15;13.78;;;;;;;6.50;73.07;101247.14;1752604;79;22037;-61
2021/10/05 05:04:04;;;;;;;22.17;14.25;;;;;;;6.56;73.27;101248.89;1744498;81;21571;-61
2021/10/05 05:06:32;;;;;;;17.80;14.13;;;;;;;6.72;73.31;101245.80;1745204;80;21112;-64
2021/10/05 05:08:58;;;;;;;18.45;13.78;;;;;;;6.76;73.19;101251.45;1748370;79;21542;-61
2021/10/05 05:11:25;;;;;;;18.10;14.43;;;;;;;6.75;73.25;101257.58;1748517;79;21483;-61
2021/10/05 05:16:48;;;;;;;18.20;15.18;;;;;;;6.79;73.18;101254.08;1791645;79;23167;-61
2021/10/05 05:19:15;;;;;;;18.50;14.80;;;;;;;6.75;73.04;101258.89;1764007;80;21554;-62
2021/10/05 05:21:42;;;;;;;18.25;13.58;;;;;;;6.81;73.26;101262.79;1764679;80;21771;-61
2021/10/05 05:24:09;;;;;;;18.98;15.25;;;;;;;6.94;73.41;101263.20;1765974;80;21585;-63
2021/10/05 05:26:36;;;;;;;21.62;14.33;;;;;;;6.99;73.40;101269.30;1758527;80;21620;-63
2021/10/05 05:29:03;;;;;;;19.55;14.98;;;;;;;7.01;73.26;101266.69;1776839;80;21574;-62
2021/10/05 05:31:30;;;;;;;18.80;14.40;;;;;;;7.02;73.23;101275.81;1769132;80;21545;-63
2021/10/05 05:33:56;;;;;;;19.92;16.15;;;;;;;7.05;73.06;101282.80;1767485;80;22096;-62
2021/10/05 05:36:23;;;;;;;21.75;14.38;;;;;;;7.04;73.01;101285.41;1767908;79;21545;-61
2021/10/05 05:38:50;;;;;;;19.30;13.95;;;;;;;7.10;73.35;101281.47;1756216;80;21559;-62
2021/10/05 05:41:16;;;;;;;20.92;14.38;;;;;;;7.24;73.39;101282.77;1759398;80;21021;-62
2021/10/05 05:43:44;;;;;;;20.57;15.20;;;;;;;7.32;73.27;101288.38;1760850;80;21495;-62
2021/10/05 05:46:11;;;;;;;19.20;15.93;;;;;;;7.36;73.10;101285.32;1765429;80;22126;-62
2021/10/05 05:48:38;;;;;;;;;;;;;;;7.37;73.12;101291.86;1723658;81;21051;-61
2021/10/05 05:51:05;;;;;;;20.53;16.03;;;;;;;7.38;73.27;101289.70;1726220;81;20127;-62
2021/10/05 05:53:32;;;;;;;24.23;15.28;;;;;;;7.36;72.94;101291.41;1704619;83;21491;-62
2021/10/05 05:55:59;;;;;;;19.87;15.80;;;;;;;7.43;73.30;101294.89;1722421;81;21487;-63
2021/10/05 05:58:27;;;;;;;19.62;15.38;;;;;;;7.60;73.15;101290.91;1706361;82;21788;-64
2021/10/05 06:00:54;;;;;;;22.25;16.90;;;;;;;7.70;72.98;101293.90;1724668;81;20950;-62
2021/10/05 06:03:21;;;;;;;20.27;16.57;;;;;;;7.76;72.86;101296.92;1707932;82;21536;-61
2021/10/05 06:05:47;;;;;;;21.60;16.67;;;;;;;7.79;72.69;101292.55;1719056;82;21041;-64
2021/10/05 06:08:14;;;;;;;22.35;17.17;;;;;;;7.84;72.34;101296.47;1721374;82;21581;-63
2021/10/05 06:10:42;;;;;;;20.77;15.72;;;;;;;7.84;72.13;101301.70;1704571;82;22142;-61
2021/10/05 06:13:08;;;;;;;22.05;15.80;;;;;;;7.92;72.26;101301.22;1729640;81;21649;-60
2021/10/05 06:15:36;;;;;;;27.40;17.23;;;;;;;8.05;72.43;101303.33;1726467;81;21467;-60
2021/10/05 06:18:03;;;;;;;23.73;16.62;;;;;;;8.15;72.12;101307.63;1716228;82;21543;-61
2021/10/05 06:20:29;;;;;;;24.18;17.42;;;;;;;8.18;72.12;101303.69;1754840;80;21079;-64
2021/10/05 06:22:56;;;;;;;19.98;16.60;;;;;;;8.26;72.04;101311.95;1744956;80;21819;-63
2021/10/05 06:25:26;;;;;;;20.52;15.88;;;;;;;8.31;71.75;101308.86;1740461;80;21525;-64
2021/10/05 06:27:53;;;;;;;15.70;13.93;;;;;;;8.36;71.64;101310.57;1742239;80;21641;-63
2021/10/05 06:30:21;;;;;;;20.37;15.80;;;;;;;8.47;71.62;101313.57;1748227;80;21546;-65
2021/10/05 06:32:55;;;;;;;21.70;16.75;;;;;;;8.65;71.60;101312.13;1738082;80;21546;-64
2021/10/05 06:35:24;;;;;;;17.77;15.28;;;;;;;8.74;71.39;101313.81;1756889;80;22116;-64
2021/10/05 06:37:54;;;;;;;25.00;16.42;;;;;;;8.77;71.08;101306.75;1742102;80;21421;-64
2021/10/05 06:40:23;;;;;;;24.47;17.15;;;;;;;8.82;71.08;101310.66;1736509;80;21520;-64
2021/10/05 06:42:49;;;;;;;21.15;17.17;;;;;;;8.88;70.72;101308.43;1753529;80;21518;-64
2021/10/05 06:45:16;;;;;;;21.42;15.20;;;;;;;8.93;70.50;101310.12;1742071;80;21398;-65
2021/10/05 06:47:44;;;;;;;21.80;16.87;;;;;;;9.02;70.58;101316.16;1750779;80;22102;-64
2021/10/05 06:50:11;;;;;;;20.23;15.88;;;;;;;9.19;70.58;101318.61;1748288;80;21636;-64
2021/10/05 06:52:38;;;;;;;22.58;15.32;;;;;;;9.28;70.20;101312.81;1747038;80;21022;-67
2021/10/05 06:55:05;;;;;;;20.20;16.17;;;;;;;9.32;70.01;101314.55;1742342;80;21462;-64
2021/10/05 06:57:33;;;;;;;22.35;17.07;;;;;;;9.40;69.79;101307.00;1741221;80;21552;-65
2021/10/05 07:00:00;;;;;;;20.50;17.02;;;;;;;9.45;69.48;101313.94;1754144;80;22096;-62
2021/10/05 07:02:27;;;;;;;19.10;16.48;;;;;;;9.50;69.08;101311.28;1750048;80;21412;-64
2021/10/05 07:04:54;;;;;;;21.45;17.17;;;;;;;9.53;68.92;101318.68;1752149;80;21452;-66
2021/10/05 07:07:20;;;;;;;20.97;16.25;;;;;;;9.57;68.63;101315.58;1755092;80;21508;-65
2021/10/05 07:09:48;;;;;;;19.23;14.65;;;;;;;9.65;68.87;101313.72;1740323;80;21469;-65
2021/10/05 07:12:16;;;;;;;23.35;15.98;;;;;;;9.82;68.78;101313.95;1750586;80;22111;-66
2021/10/05 07:15:28;;;;;;;18.25;15.55;;;;;;;9.95;68.44;101322.09;1753653;80;21586;-65
2021/10/05 07:17:56;;;;;;;24.15;16.07;;;;;;;10.00;68.14;101315.03;1736503;81;21508;-67
2021/10/05 07:24:45;;;;;;;21.75;16.77;;;;;;;10.11;67.27;101315.75;1742782;81;21545;-67
2021/10/05 07:27:12;;;;;;;20.15;17.30;;;;;;;10.19;66.72;101319.58;1727664;81;21738;-67
2021/10/05 07:29:39;;;;;;;17.47;15.17;;;;;;;10.25;66.60;101327.81;1748083;80;21464;-68
2021/10/05 07:32:07;;;;;;;19.65;16.40;;;;;;;10.32;66.42;101326.84;1725748;81;21499;-69
2021/10/05 07:34:33;;;;;;;;;;;;;;;10.41;66.52;101331.97;1733920;81;21622;-70
2021/10/05 07:37:00;;;;;;;24.63;15.80;;;;;;;10.59;66.10;101329.51;1733339;81;20484;-68
2021/10/05 07:39:27;;;;;;;19.52;15.58;;;;;;;10.71;66.22;101329.75;1748294;81;22154;-68
2021/10/05 07:41:54;;;;;;;19.37;15.48;;;;;;;10.79;65.97;101330.94;1743864;80;21006;-70
2021/10/05 07:44:21;;;;;;;26.37;17.23;;;;;;;10.88;65.55;101341.30;1725966;81;21487;-70
2021/10/05 07:46:48;;;;;;;23.20;16.40;;;;;;;10.96;65.30;101339.40;1736848;80;21600;-70
2021/10/05 07:49:15;;;;;;;26.62;17.62;;;;;;;11.04;65.25;101337.52;1726374;81;21574;-69
2021/10/05 07:51:42;;;;;;;27.22;18.32;;;;;;;11.12;64.90;101336.06;1734066;81;21695;-69
2021/10/05 07:54:09;;;;;;;26.00;19.20;;;;;;;11.20;64.69;101333.30;1736315;81;21605;-68
2021/10/05 07:56:35;;;;;;;22.58;17.05;;;;;;;11.20;64.22;101334.15;1734728;80;21483;-69
2021/10/05 07:59:02;;;;;;;24.18;18.05;;;;;;;11.25;64.26;101335.40;1733924;81;21538;-71
2021/10/05 08:01:29;;;;;;;27.30;18.42;;;;;;;11.32;64.08;101334.39;1694836;83;21559;-69
2021/10/05 08:03:56;;;;;;;22.70;17.67;;;;;;;11.40;64.03;101333.78;1730687;81;21560;-69
2021/10/05 08:06:23;;;;;;;23.00;18.27;;;;;;;11.49;63.81;101328.34;1734160;81;21504;-70
2021/10/05 08:08:51;;;;;;;;;;;;;;;11.57;63.44;101329.96;1741924;81;21500;-69
2021/10/05 08:11:19;;;;;;;21.77;17.70;;;;;;;11.63;63.64;101328.05;1690123;83;20439;-70
2021/10/05 08:13:47;;;;;;;25.17;18.55;;;;;;;11.69;63.12;101335.83;1681351;83;21553;-71
2021/10/05 08:16:14;;;;;;;20.80;17.55;;;;;;;11.77;62.99;101332.17;1677972;83;21618;-69
2021/10/05 08:18:41;;;;;;;22.65;17.85;;;;;;;11.85;62.73;101336.39;1741115;80;21487;-70
2021/10/05 08:21:07;;;;;;;23.15;19.00;;;;;;;11.93;62.45;101334.08;1748633;81;21577;-70
2021/10/05 08:23:34;;;;;;;22.42;18.23;;;;;;;11.99;62.29;101336.11;1740520;80;21598;-69
2021/10/05 08:26:01;;;;;;;21.50;17.27;;;;;;;12.05;61.96;101326.78;1735769;80;21557;-70
2021/10/05 08:28:28;;;;;;;22.20;15.35;;;;;;;12.14;62.06;101330.09;1745394;80;21784;-70
2021/10/05 08:30:55;;;;;;;18.62;15.05;;;;;;;12.22;61.67;101334.31;1750999;80;21412;-69
2021/10/05 08:33:22;;;;;;;18.73;15.60;;;;;;;12.33;61.32;101327.91;1736206;80;21521;-71
2021/10/05 08:35:48;;;;;;;19.27;15.53;;;;;;;12.40;61.04;101320.27;1748776;80;22096;-71
2021/10/05 08:38:15;;;;;;;16.87;14.05;;;;;;;12.49;61.02;101328.40;1741857;80;21497;-68
2021/10/05 08:40:48;;;;;;;18.90;14.83;;;;;;;12.58;60.69;101330.81;1747270;80;21034;-70
2021/10/05 08:43:13;;;;;;;19.48;14.03;;;;;;;12.66;60.24;101332.37;1742981;80;21538;-69
2021/10/05 08:45:40;;;;;;;19.05;13.83;;;;;;;12.73;59.90;101330.89;1746696;80;21042;-68
2021/10/05 08:48:07;;;;;;;17.40;13.50;;;;;;;12.82;59.86;101327.56;1744519;80;21707;-67
2021/10/05 08:50:34;;;;;;;26.73;14.33;;;;;;;12.91;59.34;101328.27;1735573;80;21086;-72
2021/10/05 08:53:01;;;;;;;16.70;14.50;;;;;;;12.98;59.11;101333.80;1743011;80;21848;-68
2021/10/05 08:55:28;;;;;;;19.48;14.60;;;;;;;13.07;58.76;101324.75;1729068;80;21494;-70
2021/10/05 08:57:55;;;;;;;17.42;14.43;;;;;;;13.13;58.91;101324.16;1735115;80;21579;-67
2021/10/05 09:00:22;;;;;;;20.13;14.37;;;;;;;13.23;58.53;101325.63;1721606;81;21391;-66
2021/10/05 09:02:53;;;;;;;14.03;12.60;;;;;;;13.33;58.23;101324.09;1733494;81;21551;-67
2021/10/05 09:05:20;;;;;;;15.18;13.55;;;;;;;13.42;57.98;101323.84;1737053;80;21841;-64
2021/10/05 09:07:51;;;;;;;15.25;13.32;;;;;;;13.50;57.39;101320.98;1743650;80;21571;-67
2021/10/05 09:10:20;;;;;;;19.60;13.00;;;;;;;13.57;57.21;101317.25;1738191;80;21475;-66
2021/10/05 09:12:48;;;;;;;17.52;14.45;;;;;;;13.63;57.04;101317.92;1740323;80;21507;-69
2021/10/05 09:15:17;;;;;;;16.10;13.13;;;;;;;13.74;56.74;101315.45;1743568;80;21086;-65
2021/10/05 09:17:54;;;;;;;17.82;13.78;;;;;;;13.81;56.44;101327.11;1738276;80;21663;-65
2021/10/05 09:20:28;;;;;;;17.20;13.05;;;;;;;13.90;56.31;101325.98;1742732;80;21601;-66
2021/10/05 09:23:06;;;;;;;15.90;11.53;;;;;;;14.00;56.09;101323.92;1741302;80;21591;-66
2021/10/05 09:25:39;;;;;;;15.68;11.90;;;;;;;14.08;55.79;101319.26;1744000;80;21490;-65
2021/10/05 09:28:21;;;;;;;20.77;13.10;;;;;;;14.18;55.62;101326.45;1742173;80;21556;-65
2021/10/05 09:31:05;;;;;;;15.85;12.15;;;;;;;14.27;55.07;101326.16;1742655;80;21721;-65
2021/10/05 09:33:33;;;;;;;19.10;12.13;;;;;;;14.36;54.57;101320.58;1744144;80;21514;-65
2021/10/05 09:36:00;;;;;;;15.45;12.88;;;;;;;14.43;54.19;101320.38;1749419;80;21543;-65
2021/10/05 09:38:29;;;;;;;17.87;12.45;;;;;;;14.48;54.11;101310.05;1746129;80;21479;-64
2021/10/05 09:41:01;;;;;;;13.38;10.80;;;;;;;14.54;53.95;101313.84;1747271;80;20999;-65
2021/10/05 09:43:27;;;;;;;14.40;11.53;;;;;;;14.62;53.62;101311.41;1743074;80;21865;-66
2021/10/05 09:46:13;;;;;;;13.32;9.58;;;;;;;14.71;53.22;101312.43;1744120;80;21654;-66
2021/10/05 09:48:43;;;;;;;13.98;10.88;;;;;;;14.78;53.06;101311.31;1731446;80;21432;-65
2021/10/05 09:51:23;;;;;;;12.47;10.75;;;;;;;14.88;52.74;101305.23;1745697;80;21531;-67
2021/10/05 09:53:54;;;;;;;11.75;10.20;;;;;;;14.95;52.25;101302.80;1703914;82;21650;-64
2021/10/05 09:56:22;;;;;;;11.50;10.18;;;;;;;15.02;52.37;101303.45;1737627;80;21728;-63
2021/10/05 09:58:52;;;;;;;;;;;;;;;15.13;52.21;101307.45;1742634;80;21579;-63
2021/10/05 10:01:19;;;;;;;14.45;10.40;;;;;;;15.22;51.42;101310.69;1754030;80;20504;-64
2021/10/05 10:03:47;;;;;;;10.77;7.97;;;;;;;15.24;51.70;101318.12;1749851;80;21444;-66
2021/10/05 10:06:14;;;;;;;;;;;;;;;15.28;50.80;101310.02;1751740;80;21073;-62
2021/10/05 10:08:49;;;;;;;7.92;7.22;;;;;;;15.33;50.35;101305.42;1749150;80;21643;-62
2021/10/05 10:11:17;;;;;;;9.83;8.30;;;;;;;15.38;50.59;101309.22;1732562;81;21578;-63
2021/10/05 10:13:45;;;;;;;9.47;8.10;;;;;;;15.47;49.80;101302.27;1737983;80;21038;-63
2021/10/05 10:16:13;;;;;;;9.03;8.13;;;;;;;15.50;49.61;101299.95;1746145;80;21602;-62
2021/10/05 10:19:02;;;;;;;7.58;6.62;;;;;;;15.58;49.61;101302.73;1748247;80;20943;-62
2021/10/05 10:21:33;;;;;;;9.58;7.87;;;;;;;15.66;48.85;101301.11;1743582;80;21618;-63
2021/10/05 10:24:13;;;;;;;9.33;7.72;;;;;;;15.72;48.45;101294.72;1740431;80;21539;-63
2021/10/05 10:26:43;;;;;;;12.28;8.40;;;;;;;15.77;48.10;101291.47;1740657;80;21502;-63
2021/10/05 10:29:11;;;;;;;6.58;5.97;;;;;;;15.82;48.59;101288.63;1742882;80;21543;-64
2021/10/05 10:31:39;;;;;;;7.65;6.87;;;;;;;15.90;47.82;101283.44;1742651;80;21626;-63
2021/10/05 10:34:07;;;;;;;9.15;6.78;;;;;;;15.98;47.12;101284.46;1744851;80;21555;-63
2021/10/05 10:36:40;;;;;;;7.62;6.78;;;;;;;15.99;46.90;101281.34;1744398;80;21581;-65
2021/10/05 10:39:18;;;;;;;8.10;6.95;;;;;;;16.04;46.83;101265.64;1737673;80;21500;-63
2021/10/05 10:41:53;;;;;;;7.10;5.87;;;;;;;16.10;46.80;101268.51;1739735;80;21508;-63
2021/10/05 10:44:28;;;;;;;6.53;5.67;;;;;;;16.19;46.42;101260.19;1735165;80;21607;-62
2021/10/05 10:47:16;;;;;;;6.65;5.90;;;;;;;16.27;46.41;101261.20;1739331;81;21487;-62
2021/10/05 10:50:00;;;;;;;8.98;6.10;;;;;;;16.33;45.63;101263.15;1739336;80;21503;-61
2021/10/05 10:52:29;;;;;;;6.35;4.90;;;;;;;16.38;45.17;101260.29;1740746;80;21493;-63
2021/10/05 10:54:57;;;;;;;6.22;4.65;;;;;;;16.43;44.15;101259.64;1737482;80;21449;-65
2021/10/05 10:57:34;;;;;;;10.58;4.90;;;;;;;16.42;43.18;101260.56;1740032;80;21536;-64
2021/10/05 11:00:26;;;;;;;5.47;4.97;;;;;;;16.43;43.18;101266.28;1738239;80;21732;-65
2021/10/05 11:02:59;;;;;;;6.25;5.65;;;;;;;16.43;43.28;101265.42;1741828;80;21572;-68
2021/10/05 11:05:32;;;;;;;9.10;5.33;;;;;;;16.44;42.99;101261.35;1740565;80;20983;-66
2021/10/05 11:07:59;;;;;;;10.03;5.50;;;;;;;16.47;42.88;101261.23;1747958;80;21690;-64
2021/10/05 11:10:29;;;;;;;6.23;5.63;;;;;;;16.46;42.62;101252.00;1745517;80;21618;-66
2021/10/05 11:13:00;;;;;;;8.15;6.08;;;;;;;16.45;42.68;101254.28;1758272;80;21789;-63
2021/10/05 11:15:36;;;;;;;9.80;5.92;;;;;;;16.39;43.11;101248.76;1743847;80;21416;-63
2021/10/05 11:18:15;;;;;;;9.08;5.87;;;;;;;16.38;43.43;101242.19;1743982;80;21573;-63
2021/10/05 11:20:54;;;;;;;5.03;4.53;;;;;;;16.39;43.46;101242.56;1726170;81;21555;-63
2021/10/05 11:23:24;;;;;;;5.28;4.85;;;;;;;16.45;43.41;101235.22;1724588;81;21545;-62
2021/10/05 11:25:55;;;;;;;10.18;6.30;;;;;;;16.62;43.26;101237.64;1727123;81;21650;-63
2021/10/05 11:28:28;;;;;;;6.12;5.55;;;;;;;16.69;42.71;101229.81;1727215;81;21498;-63
2021/10/05 11:31:02;;;;;;;6.65;6.08;;;;;;;16.66;42.49;101232.11;1746205;81;21562;-64